Time;durP1;ratioP1;P1;durP2;ratioP2;P2;SDS_P1;SDS_P2;PMS_P1;PMS_P2;Temp;Humidity;BMP_temperature;BMP_pressure;BME280_temperature;BME280_humidity;BME280_pressure;Samples;Min_cycle;Max_cycle;Signal;HPM_P1;HPM_P2
2022/05/10 00:00:09;;;;;;;8.48;4.00;;;21.60;77.60;;;;;;4933345;29;20047;-65
2022/05/10 00:02:35;;;;;;;7.85;4.55;;;21.80;77.60;;;;;;4895916;29;20044;-70
2022/05/10 00:05:01;;;;;;;8.88;3.80;;;21.50;77.50;;;;;;4914175;29;20410;-70
2022/05/10 00:07:28;;;;;;;8.15;4.05;;;21.90;78.00;;;;;;4906025;29;20051;-70
2022/05/10 00:09:53;;;;;;;10.05;3.67;;;21.80;74.80;;;;;;4900764;29;20048;-70
2022/05/10 00:12:19;;;;;;;9.10;4.13;;;21.60;77.50;;;;;;4929072;29;20043;-69
2022/05/10 00:14:45;;;;;;;8.18;3.70;;;21.70;74.80;;;;;;4942817;29;20040;-70
2022/05/10 00:17:22;;;;;;;9.75;4.03;;;21.70;77.60;;;;;;4925652;29;20490;-71
2022/05/10 00:19:48;;;;;;;9.35;4.18;;;;;;;;;;4910250;29;20079;-70
2022/05/10 00:22:14;;;;;;;10.98;4.50;;;21.60;77.50;;;;;;4943471;29;20080;-70
2022/05/10 00:24:40;;;;;;;7.97;4.03;;;21.80;77.80;;;;;;4933868;29;20143;-70
2022/05/10 00:27:06;;;;;;;9.95;4.43;;;21.80;74.70;;;;;;4943568;29;20040;-70
2022/05/10 00:29:32;;;;;;;11.88;4.55;;;;;;;;;;4946864;29;20051;-68
2022/05/10 00:31:57;;;;;;;7.68;3.67;;;21.90;72.80;;;;;;4935299;29;20047;-65
2022/05/10 00:34:23;;;;;;;10.75;4.28;;;21.60;77.50;;;;;;4903340;29;20044;-66
2022/05/10 00:36:49;;;;;;;8.35;3.78;;;21.60;77.50;;;;;;4950934;29;20063;-66
2022/05/10 00:39:14;;;;;;;9.13;4.00;;;21.70;77.60;;;;;;4945893;29;20505;-66
2022/05/10 00:41:46;;;;;;;7.00;3.63;;;21.90;77.60;;;;;;4950754;29;20058;-65
2022/05/10 00:44:21;;;;;;;8.00;3.67;;;21.60;74.80;;;;;;4930661;29;20113;-66
2022/05/10 00:46:59;;;;;;;6.95;3.53;;;21.60;77.50;;;;;;4911961;29;20513;-66
2022/05/10 00:49:54;;;;;;;8.48;3.83;;;21.30;77.20;;;;;;4920947;29;20047;-66
2022/05/10 00:52:44;;;;;;;8.30;4.10;;;21.60;77.50;;;;;;4929619;29;20046;-65
2022/05/10 00:55:30;;;;;;;7.78;3.60;;;21.60;77.50;;;;;;4930468;29;20046;-65
2022/05/10 00:58:14;;;;;;;7.85;3.55;;;21.70;77.50;;;;;;4935466;29;20139;-65
2022/05/10 01:00:40;;;;;;;6.60;3.67;;;21.50;77.20;;;;;;4922997;29;20054;-66
2022/05/10 01:03:25;;;;;;;7.35;3.60;;;21.30;72.30;;;;;;4915753;29;20122;-65
2022/05/10 01:06:04;;;;;;;9.55;3.92;;;21.70;77.30;;;;;;4928589;29;20179;-65
2022/05/10 01:08:37;;;;;;;8.00;4.00;;;21.30;74.30;;;;;;4943944;29;20039;-66
2022/05/10 01:11:25;;;;;;;8.70;4.00;;;21.50;77.60;;;;;;4902197;29;20048;-66
2022/05/10 01:14:26;;;;;;;11.30;4.20;;;21.50;77.10;;;;;;4915166;29;20056;-65
2022/05/10 01:16:52;;;;;;;10.02;4.57;;;21.30;77.00;;;;;;4860434;29;20073;-66
2022/05/10 01:19:18;;;;;;;10.10;3.78;;;21.50;77.20;;;;;;4863272;29;20169;-65
2022/05/10 01:22:07;;;;;;;6.97;3.75;;;21.30;77.20;;;;;;4879493;29;20056;-65
2022/05/10 01:24:42;;;;;;;10.57;4.78;;;21.60;77.20;;;;;;4859866;29;20443;-65
2022/05/10 01:27:32;;;;;;;8.73;4.00;;;21.60;77.40;;;;;;4862364;29;20080;-65
2022/05/10 01:30:13;;;;;;;6.57;3.63;;;21.60;77.20;;;;;;4847301;29;20064;-66
2022/05/10 01:36:04;;;;;;;7.80;3.80;;;21.60;77.60;;;;;;4877628;29;20452;-65
2022/05/10 01:39:11;;;;;;;8.48;3.90;;;21.40;77.10;;;;;;4878079;29;20060;-65
2022/05/10 01:41:47;;;;;;;8.65;3.80;;;21.40;77.40;;;;;;4845393;29;20061;-65
2022/05/10 01:44:42;;;;;;;6.40;3.60;;;21.30;77.20;;;;;;4863263;29;20049;-66
2022/05/10 01:47:22;;;;;;;6.72;3.83;;;21.40;77.10;;;;;;4864393;29;20487;-66
2022/05/10 01:50:08;;;;;;;5.55;3.25;;;21.60;77.40;;;;;;4878263;29;20463;-66
2022/05/10 01:53:05;;;;;;;8.52;3.75;;;21.30;77.10;;;;;;4901529;29;20114;-67
2022/05/10 01:55:37;;;;;;;7.70;3.83;;;21.40;77.10;;;;;;4897708;29;20045;-65
2022/05/10 01:58:14;;;;;;;9.50;3.92;;;21.30;77.10;;;;;;4895998;29;20059;-66
2022/05/10 02:00:40;;;;;;;8.68;3.92;;;21.60;77.40;;;;;;4897167;29;20056;-66
2022/05/10 02:03:18;;;;;;;7.38;3.53;;;21.50;72.60;;;;;;4881707;29;20052;-65
2022/05/10 02:06:01;;;;;;;7.30;3.33;;;21.50;73.20;;;;;;4872827;29;20139;-65
2022/05/10 02:08:34;;;;;;;6.57;3.53;;;21.40;77.10;;;;;;4895135;29;20060;-65
2022/05/10 02:11:03;;;;;;;6.30;3.63;;;21.50;77.30;;;;;;4892787;29;20169;-66
2022/05/10 02:13:31;;;;;;;6.55;3.63;;;21.40;77.10;;;;;;4873433;29;20064;-66
2022/05/10 02:16:06;;;;;;;8.93;3.88;;;21.50;74.60;;;;;;4881418;29;20120;-66
2022/05/10 02:18:41;;;;;;;8.43;3.42;;;21.40;77.40;;;;;;4894991;29;20053;-65
2022/05/10 02:21:14;;;;;;;7.30;4.15;;;21.60;74.80;;;;;;4863147;29;20415;-66
2022/05/10 02:23:57;;;;;;;8.57;4.00;;;21.50;77.40;;;;;;4880322;29;20091;-65
2022/05/10 02:26:33;;;;;;;7.47;3.80;;;21.50;77.20;;;;;;4870870;29;20495;-65
2022/05/10 02:29:14;;;;;;;9.55;4.03;;;21.40;73.10;;;;;;4864286;29;20059;-66
2022/05/10 02:34:40;;;;;;;8.15;4.13;;;21.40;77.20;;;;;;4910216;29;20409;-66
2022/05/10 02:37:06;;;;;;;6.57;3.97;;;21.60;74.60;;;;;;4896477;29;20051;-65
2022/05/10 02:39:31;;;;;;;7.55;4.03;;;21.50;77.30;;;;;;4942587;29;20512;-67
2022/05/10 02:41:58;;;;;;;7.68;3.78;;;21.50;74.20;;;;;;4944249;29;20146;-66
2022/05/10 02:44:24;;;;;;;9.13;4.45;;;21.60;74.70;;;;;;4927903;29;20043;-66
2022/05/10 02:46:50;;;;;;;7.38;4.15;;;21.20;77.20;;;;;;4921835;29;20055;-65
2022/05/10 02:49:17;;;;;;;7.88;4.15;;;21.50;77.30;;;;;;4941707;29;20067;-66
2022/05/10 02:51:43;;;;;;;6.38;3.95;;;21.30;77.20;;;;;;4941137;29;20050;-65
2022/05/10 02:54:08;;;;;;;6.07;3.70;;;21.60;74.50;;;;;;4946394;29;20134;-66
2022/05/10 02:56:34;;;;;;;10.25;4.35;;;21.30;77.10;;;;;;4942832;29;20039;-66
2022/05/10 02:59:17;;;;;;;9.30;4.60;;;21.50;77.30;;;;;;4944525;29;20040;-66
2022/05/10 03:02:10;;;;;;;7.03;4.03;;;21.60;76.90;;;;;;4919680;29;20051;-66
2022/05/10 03:04:37;;;;;;;7.72;4.28;;;21.40;77.40;;;;;;4908760;29;20404;-66
2022/05/10 03:07:04;;;;;;;7.78;4.32;;;21.40;77.50;;;;;;4911479;29;20458;-65
2022/05/10 03:09:30;;;;;;;8.77;4.57;;;21.40;77.20;;;;;;4945739;29;20416;-66
2022/05/10 03:11:55;;;;;;;8.10;4.05;;;21.60;77.30;;;;;;4920124;29;20126;-65
2022/05/10 03:14:21;;;;;;;7.97;4.35;;;21.30;77.40;;;;;;4930361;29;20497;-66
2022/05/10 03:16:47;;;;;;;8.18;4.43;;;21.10;77.00;;;;;;4947136;29;20122;-67
2022/05/10 03:19:12;;;;;;;8.45;4.53;;;21.50;75.70;;;;;;4947685;29;20054;-68
2022/05/10 03:21:38;;;;;;;9.20;3.85;;;21.60;77.60;;;;;;4931311;29;20039;-65
2022/05/10 03:24:04;;;;;;;8.20;4.38;;;21.40;77.30;;;;;;4928255;29;20083;-66
2022/05/10 03:26:30;;;;;;;8.07;4.65;;;21.30;77.40;;;;;;4928238;29;20548;-65
2022/05/10 03:28:56;;;;;;;8.77;4.75;;;21.40;77.30;;;;;;4929267;29;20055;-66
2022/05/10 03:31:22;;;;;;;7.63;4.63;;;21.40;77.70;;;;;;4911779;29;20413;-66
2022/05/10 03:34:54;;;;;;;8.68;4.38;;;21.40;74.70;;;;;;4912265;29;20111;-66
2022/05/10 03:36:38;;;;;;;7.43;4.60;;;21.50;77.30;;;;;;4906330;29;20047;-68
2022/05/10 03:39:04;;;;;;;8.80;4.85;;;21.40;77.40;;;;;;4944996;29;20063;-66
2022/05/10 03:41:30;;;;;;;10.77;5.30;;;21.50;77.50;;;;;;4896204;29;20040;-66
2022/05/10 03:43:56;;;;;;;8.95;4.97;;;21.80;78.10;;;;;;4941550;29;20105;-66
2022/05/10 03:46:21;;;;;;;9.57;5.07;;;21.50;77.40;;;;;;4920952;29;20082;-66
2022/05/10 03:48:49;;;;;;;8.90;5.20;;;21.30;77.30;;;;;;4931393;29;20486;-66
2022/05/10 03:51:14;;;;;;;10.68;5.30;;;21.40;77.40;;;;;;4911106;29;20120;-66
2022/05/10 03:53:40;;;;;;;8.43;4.70;;;21.40;77.60;;;;;;4937607;29;20493;-66
2022/05/10 03:56:06;;;;;;;8.13;5.03;;;21.50;77.40;;;;;;4931910;29;20055;-66
2022/05/10 03:58:32;;;;;;;10.63;5.50;;;21.50;74.70;;;;;;4920718;29;20134;-66
2022/05/10 04:00:57;;;;;;;9.68;5.20;;;21.40;78.10;;;;;;4947438;29;20047;-66
2022/05/10 04:03:23;;;;;;;8.73;5.43;;;21.50;77.40;;;;;;4905290;29;20047;-66
2022/05/10 04:05:49;;;;;;;8.30;5.03;;;21.50;77.40;;;;;;4925703;29;20048;-65
2022/05/10 04:08:14;;;;;;;10.20;5.38;;;21.50;77.50;;;;;;4917507;29;20134;-65
2022/05/10 04:10:40;;;;;;;8.45;4.65;;;21.30;77.60;;;;;;4898839;29;20493;-65
2022/05/10 04:13:07;;;;;;;8.50;4.97;;;21.40;77.60;;;;;;4946957;29;20404;-63
2022/05/10 04:15:32;;;;;;;7.47;4.70;;;21.30;77.60;;;;;;4919155;29;20122;-65
2022/05/10 04:17:58;;;;;;;8.98;4.93;;;21.50;77.70;;;;;;4943280;29;20047;-66
2022/05/10 04:20:24;;;;;;;9.43;5.07;;;21.30;77.60;;;;;;4927616;29;20047;-64
2022/05/10 04:22:49;;;;;;;8.68;4.70;;;21.40;74.70;;;;;;4917932;29;20052;-65
2022/05/10 04:25:18;;;;;;;9.38;4.97;;;21.70;77.80;;;;;;4901651;29;20517;-64
2022/05/10 04:27:44;;;;;;;9.80;4.88;;;21.30;77.90;;;;;;4917215;29;20047;-65
2022/05/10 04:30:10;;;;;;;9.70;5.07;;;21.60;77.90;;;;;;4916922;29;20474;-65
2022/05/10 04:32:38;;;;;;;8.48;4.63;;;21.50;78.00;;;;;;4918619;29;20069;-66
2022/05/10 04:35:04;;;;;;;10.45;5.13;;;21.60;75.10;;;;;;4897404;29;20040;-65
2022/05/10 04:37:29;;;;;;;9.60;5.45;;;21.30;76.10;;;;;;4926499;29;20386;-65
2022/05/10 04:42:43;;;;;;;9.80;5.03;;;21.60;78.00;;;;;;4944114;29;20099;-65
2022/05/10 04:45:09;;;;;;;9.55;5.15;;;21.70;75.40;;;;;;4943569;29;20048;-65
2022/05/10 04:47:35;;;;;;;9.20;5.40;;;21.50;76.90;;;;;;4928343;29;20047;-65
2022/05/10 04:50:01;;;;;;;9.07;5.63;;;21.40;75.00;;;;;;4931708;29;20047;-66
2022/05/10 04:52:27;;;;;;;8.50;5.10;;;21.40;75.00;;;;;;4922791;29;20058;-65
2022/05/10 04:54:53;;;;;;;8.55;5.07;;;21.50;78.00;;;;;;4937382;29;20405;-65
2022/05/10 04:57:18;;;;;;;8.93;5.10;;;21.80;75.00;;;;;;4927611;29;20054;-65
2022/05/10 04:59:44;;;;;;;12.45;5.68;;;21.30;77.80;;;;;;4937354;29;20047;-64
2022/05/10 05:02:10;;;;;;;8.98;5.20;;;21.60;74.90;;;;;;4943664;29;20396;-66
2022/05/10 05:04:36;;;;;;;10.43;5.05;;;;;;;;;;4916284;29;20362;-65
2022/05/10 05:07:02;;;;;;;8.48;5.35;;;21.60;78.00;;;;;;4921706;29;20090;-65
2022/05/10 05:09:27;;;;;;;9.45;5.70;;;21.40;77.90;;;;;;4925933;29;20074;-65
2022/05/10 05:11:54;;;;;;;9.55;5.63;;;21.50;77.90;;;;;;4901136;29;20055;-65
2022/05/10 05:14:20;;;;;;;8.57;5.65;;;21.70;78.00;;;;;;4898457;29;20533;-65
2022/05/10 05:16:46;;;;;;;7.22;5.07;;;21.40;77.80;;;;;;4897992;29;20044;-66
2022/05/10 05:19:12;;;;;;;9.38;5.25;;;21.60;77.90;;;;;;4937474;29;20099;-65
2022/05/10 05:21:38;;;;;;;9.65;5.18;;;21.70;74.90;;;;;;4939646;29;20114;-65
2022/05/10 05:24:05;;;;;;;11.48;5.88;;;21.70;78.00;;;;;;4924719;29;20114;-65
2022/05/10 05:26:30;;;;;;;11.25;5.43;;;21.60;77.90;;;;;;4944060;29;20481;-66
2022/05/10 05:28:57;;;;;;;8.82;5.22;;;;;;;;;;4916201;29;20059;-67
2022/05/10 05:31:23;;;;;;;10.45;5.18;;;21.60;77.90;;;;;;4949731;29;20523;-65
2022/05/10 05:33:49;;;;;;;12.20;5.40;;;21.50;75.80;;;;;;4932616;29;20035;-65
2022/05/10 05:36:15;;;;;;;8.23;5.07;;;21.60;77.90;;;;;;4947660;29;20114;-65
2022/05/10 05:38:41;;;;;;;10.20;5.90;;;21.50;74.90;;;;;;4939578;29;20039;-65
2022/05/10 05:41:07;;;;;;;9.25;5.25;;;21.60;77.90;;;;;;4910329;29;20079;-66
2022/05/10 05:43:34;;;;;;;8.07;4.72;;;21.60;78.20;;;;;;4944737;29;20051;-65
2022/05/10 05:46:01;;;;;;;10.13;5.65;;;21.80;75.30;;;;;;4948220;29;20055;-65
2022/05/10 05:48:27;;;;;;;10.05;5.28;;;21.50;77.80;;;;;;4932573;29;20047;-66
2022/05/10 05:50:53;;;;;;;14.60;5.55;;;21.60;76.10;;;;;;4949573;29;20080;-65
2022/05/10 05:53:18;;;;;;;9.05;5.10;;;21.90;77.90;;;;;;4915948;29;20044;-65
2022/05/10 05:55:47;;;;;;;8.25;4.75;;;21.80;78.30;;;;;;4943288;29;20052;-66
2022/05/10 05:58:13;;;;;;;8.57;5.25;;;21.80;77.90;;;;;;4947089;29;20048;-65
2022/05/10 06:00:39;;;;;;;10.30;5.65;;;21.80;77.90;;;;;;4956390;29;20035;-65
2022/05/10 06:03:05;;;;;;;8.00;5.00;;;21.80;73.90;;;;;;4912973;29;20055;-65
2022/05/10 06:05:31;;;;;;;10.18;5.53;;;;;;;;;;4904613;29;20043;-65
2022/05/10 06:07:58;;;;;;;9.50;5.78;;;21.80;78.20;;;;;;4948865;29;20062;-65
2022/05/10 06:10:24;;;;;;;9.85;5.40;;;21.90;77.80;;;;;;4935879;29;20057;-66
2022/05/10 06:12:49;;;;;;;8.13;4.85;;;22.00;77.80;;;;;;4924619;29;20050;-66
2022/05/10 06:15:17;;;;;;;8.57;5.28;;;21.90;77.70;;;;;;4946251;29;20406;-66
2022/05/10 06:17:43;;;;;;;9.48;5.28;;;22.10;75.30;;;;;;4904596;29;20072;-68
2022/05/10 06:20:10;;;;;;;9.73;6.07;;;;;;;;;;4917049;29;20094;-67
2022/05/10 06:22:36;;;;;;;8.98;5.53;;;22.00;78.40;;;;;;4944877;29;20071;-65
2022/05/10 06:25:03;;;;;;;10.45;6.00;;;21.80;77.70;;;;;;4932790;29;20062;-65
2022/05/10 06:27:28;;;;;;;9.05;5.70;;;21.90;77.80;;;;;;4948286;29;20481;-65
2022/05/10 06:29:54;;;;;;;10.93;5.40;;;22.00;74.80;;;;;;4916633;29;20062;-66
2022/05/10 06:32:24;;;;;;;9.43;6.00;;;21.90;77.60;;;;;;4903682;29;20043;-66
2022/05/10 06:34:50;;;;;;;9.80;5.68;;;22.10;77.90;;;;;;4907389;29;20087;-66
2022/05/10 06:40:10;;;;;;;9.30;5.85;;;22.20;77.70;;;;;;4908574;29;20106;-66
2022/05/10 06:42:36;;;;;;;9.10;6.18;;;;;;;;;;4916181;29;20135;-73
2022/05/10 06:45:02;;;;;;;9.77;5.32;;;22.20;77.60;;;;;;4895609;29;20494;-73
2022/05/10 06:47:28;;;;;;;9.75;5.63;;;22.20;77.50;;;;;;4901039;29;20132;-73
2022/05/10 06:49:54;;;;;;;9.75;5.70;;;22.00;77.70;;;;;;4885111;29;20131;-73
2022/05/10 06:52:20;;;;;;;9.55;5.50;;;;;;;;;;4916474;29;20397;-73
2022/05/10 06:54:46;;;;;;;11.02;5.68;;;22.30;72.70;;;;;;4928784;29;20127;-73
2022/05/10 06:57:12;;;;;;;10.52;5.90;;;22.40;77.40;;;;;;4926661;29;20135;-73
2022/05/10 06:59:38;;;;;;;11.02;5.93;;;;;;;;;;4934022;29;20054;-73
2022/05/10 07:02:04;;;;;;;8.18;5.22;;;22.40;72.50;;;;;;4928420;29;20099;-74
2022/05/10 07:04:29;;;;;;;9.10;5.38;;;22.80;77.10;;;;;;4921686;29;20052;-72
2022/05/10 07:06:55;;;;;;;12.30;6.20;;;22.80;76.80;;;;;;4931596;29;20044;-73
2022/05/10 07:09:21;;;;;;;11.27;6.18;;;23.10;76.80;;;;;;4920662;29;20048;-68
2022/05/10 07:11:47;;;;;;;8.77;5.55;;;23.00;76.60;;;;;;4926531;29;20059;-70
2022/05/10 07:14:13;;;;;;;8.73;5.80;;;23.30;76.70;;;;;;4936207;29;20047;-73
2022/05/10 07:16:39;;;;;;;11.98;6.25;;;23.20;76.60;;;;;;4934014;29;20077;-72
2022/05/10 07:19:04;;;;;;;9.32;6.05;;;23.30;73.90;;;;;;4932844;28;20122;-71
2022/05/10 07:21:30;;;;;;;10.05;5.90;;;23.40;76.40;;;;;;4910516;29;20372;-72
2022/05/10 07:23:56;;;;;;;8.63;5.75;;;23.30;73.60;;;;;;4915782;29;20418;-73
2022/05/10 07:26:22;;;;;;;10.75;6.43;;;23.50;76.20;;;;;;4923928;29;20040;-72
2022/05/10 07:28:47;;;;;;;11.15;5.95;;;23.40;76.10;;;;;;4926515;29;20040;-73
2022/05/10 07:31:14;;;;;;;12.43;6.00;;;23.60;73.20;;;;;;4895437;29;20122;-73
2022/05/10 07:33:40;;;;;;;10.15;5.57;;;23.30;75.80;;;;;;4909232;29;20498;-72
2022/05/10 07:36:24;;;;;;;10.95;5.95;;;23.50;73.00;;;;;;4899907;29;20036;-73
2022/05/10 07:38:50;;;;;;;8.02;5.25;;;23.40;72.00;;;;;;4893834;29;20103;-74
2022/05/10 07:41:18;;;;;;;11.35;6.22;;;23.80;73.20;;;;;;4893233;29;20044;-74
2022/05/10 07:43:45;;;;;;;7.15;5.38;;;23.60;75.60;;;;;;4918130;29;20063;-68
2022/05/10 07:46:10;;;;;;;9.57;5.43;;;23.80;72.70;;;;;;4911077;29;20051;-69
2022/05/10 07:48:36;;;;;;;8.38;5.38;;;23.80;72.80;;;;;;4916651;29;20552;-66
2022/05/10 07:51:02;;;;;;;11.75;5.95;;;23.80;72.60;;;;;;4893914;29;20515;-74
2022/05/10 07:53:28;;;;;;;10.48;5.75;;;23.80;72.70;;;;;;4913737;29;20051;-74
2022/05/10 07:55:54;;;;;;;12.00;5.95;;;23.70;72.10;;;;;;4898205;29;20051;-74
2022/05/10 07:58:20;;;;;;;10.60;5.70;;;23.90;72.70;;;;;;4884176;29;20487;-75
2022/05/10 08:00:46;;;;;;;9.57;6.10;;;24.10;75.60;;;;;;4934343;28;20509;-73
2022/05/10 08:03:16;;;;;;;15.95;6.93;;;23.80;72.30;;;;;;4886826;29;20110;-74
2022/05/10 08:05:44;;;;;;;13.57;6.32;;;;;;;;;;4938411;28;20050;-73
2022/05/10 08:08:13;;;;;;;11.68;5.40;;;23.80;75.10;;;;;;4924019;29;20114;-74
2022/05/10 08:10:40;;;;;;;11.10;5.80;;;23.80;75.50;;;;;;4906332;29;20127;-76
2022/05/10 08:13:34;;;;;;;11.52;6.20;;;23.80;75.00;;;;;;4920294;29;20068;-67
2022/05/10 08:16:00;;;;;;;11.80;6.07;;;23.80;74.80;;;;;;4944290;28;20059;-75
2022/05/10 08:18:26;;;;;;;11.38;5.82;;;23.90;75.10;;;;;;4904379;29;20451;-74
2022/05/10 08:20:53;;;;;;;13.40;6.07;;;24.00;72.30;;;;;;4898840;29;20118;-74
2022/05/10 08:23:21;;;;;;;8.77;5.18;;;24.00;74.90;;;;;;4925883;29;20408;-74
2022/05/10 08:25:48;;;;;;;13.23;5.72;;;23.90;72.30;;;;;;4926432;29;20063;-74
2022/05/10 08:28:14;;;;;;;10.27;5.47;;;24.00;74.80;;;;;;4929894;29;20468;-75
2022/05/10 08:30:41;;;;;;;8.40;5.13;;;23.90;74.70;;;;;;4934884;29;20079;-74
2022/05/10 08:33:10;;;;;;;11.65;5.47;;;24.20;72.20;;;;;;4893125;29;20048;-67
2022/05/10 08:35:37;;;;;;;12.90;6.03;;;24.10;72.10;;;;;;4933037;29;20102;-67
2022/05/10 08:38:03;;;;;;;10.68;5.00;;;24.00;72.10;;;;;;4952834;29;20405;-66
2022/05/10 08:40:40;;;;;;;12.30;4.75;;;24.30;72.10;;;;;;4933415;29;20058;-66
2022/05/10 08:43:09;;;;;;;9.77;4.97;;;24.00;71.50;;;;;;4914586;29;20441;-67
2022/05/10 08:45:38;;;;;;;8.82;4.38;;;23.90;71.90;;;;;;4915577;28;20576;-72
2022/05/10 08:48:05;;;;;;;9.15;4.40;;;24.20;72.20;;;;;;4894953;28;20045;-66
2022/05/10 08:50:31;;;;;;;8.55;4.97;;;24.00;71.60;;;;;;4938236;28;20046;-67
2022/05/10 08:52:57;;;;;;;8.90;4.93;;;24.10;74.30;;;;;;4923124;28;20040;-66
2022/05/10 08:55:27;;;;;;;10.07;4.80;;;24.40;71.60;;;;;;4914084;29;20441;-71
2022/05/10 08:58:04;;;;;;;8.48;4.30;;;24.20;74.40;;;;;;4894918;29;20035;-74
2022/05/10 09:00:33;;;;;;;12.52;4.80;;;24.10;74.30;;;;;;4940920;29;20201;-64
2022/05/10 09:02:59;;;;;;;8.93;4.97;;;24.00;74.10;;;;;;4935046;28;20074;-74
2022/05/10 09:05:28;;;;;;;13.60;5.25;;;24.40;71.80;;;;;;4887732;29;20494;-75
2022/05/10 09:08:15;;;;;;;14.70;5.40;;;24.20;71.60;;;;;;4905825;29;20155;-66
2022/05/10 09:10:45;;;;;;;12.40;4.90;;;24.00;74.40;;;;;;4938491;29;20069;-65
2022/05/10 09:13:14;;;;;;;14.30;5.10;;;24.20;71.80;;;;;;4906514;29;20442;-67
2022/05/10 09:15:46;;;;;;;11.77;5.15;;;24.10;71.60;;;;;;4922308;29;20039;-75
2022/05/10 09:18:49;;;;;;;11.18;4.82;;;24.00;71.80;;;;;;4938906;29;20087;-75
2022/05/10 09:21:31;;;;;;;12.07;4.80;;;24.20;70.40;;;;;;4917210;29;20056;-78
2022/05/10 09:24:11;;;;;;;11.02;5.18;;;23.90;74.30;;;;;;4897697;28;20134;-67
2022/05/10 09:26:39;;;;;;;10.57;4.70;;;23.90;74.30;;;;;;4902023;29;20048;-75
2022/05/10 09:29:26;;;;;;;8.13;4.13;;;23.90;71.70;;;;;;4900682;29;20044;-67
2022/05/10 09:34:46;;;;;;;10.73;5.10;;;24.00;74.20;;;;;;4897761;29;20407;-68
2022/05/10 09:37:21;;;;;;;10.35;4.68;;;24.00;71.60;;;;;;4908766;29;20080;-74
2022/05/10 09:39:56;;;;;;;15.85;4.60;;;23.70;74.40;;;;;;4884080;29;20163;-74
2022/05/10 09:42:28;;;;;;;7.85;4.20;;;23.90;70.20;;;;;;4897999;29;20053;-73
2022/05/10 09:45:02;;;;;;;14.00;4.93;;;23.80;71.90;;;;;;4892903;29;20056;-74
2022/05/10 09:47:28;;;;;;;7.13;4.40;;;23.70;70.30;;;;;;4916835;29;20582;-73
2022/05/10 09:49:54;;;;;;;9.70;4.35;;;23.50;74.30;;;;;;4917069;29;20060;-73
2022/05/10 09:52:24;;;;;;;9.15;4.13;;;23.80;71.40;;;;;;4902534;29;20147;-73
2022/05/10 09:54:52;;;;;;;12.25;4.57;;;23.50;74.20;;;;;;4913794;29;20044;-74
2022/05/10 09:57:36;;;;;;;12.15;4.65;;;23.60;74.20;;;;;;4867006;29;20119;-69
2022/05/10 10:00:03;;;;;;;10.73;4.55;;;23.70;74.40;;;;;;4897678;29;20056;-72
2022/05/10 10:02:31;;;;;;;18.27;5.15;;;23.70;74.20;;;;;;4916809;29;20048;-73
2022/05/10 10:04:57;;;;;;;9.63;4.63;;;23.30;71.40;;;;;;4918963;29;20088;-74
2022/05/10 10:07:25;;;;;;;13.27;4.88;;;23.50;74.20;;;;;;4900004;29;20052;-73
2022/05/10 10:09:56;;;;;;;12.38;5.40;;;23.60;71.50;;;;;;4902190;29;20095;-74
2022/05/10 10:12:36;;;;;;;11.95;4.40;;;23.60;74.40;;;;;;4917961;29;20048;-74
2022/05/10 10:15:15;;;;;;;16.08;5.68;;;23.80;74.70;;;;;;4898893;29;20487;-74
2022/05/10 10:17:42;;;;;;;12.00;5.20;;;23.50;74.50;;;;;;4912196;29;20073;-74
2022/05/10 10:20:16;;;;;;;12.77;5.55;;;23.60;71.80;;;;;;4917232;29;20048;-73
2022/05/10 10:22:46;;;;;;;11.35;5.28;;;23.90;72.10;;;;;;4901551;29;20514;-74
2022/05/10 10:25:33;;;;;;;9.75;5.32;;;23.70;72.40;;;;;;4886337;29;20091;-75
2022/05/10 10:28:06;;;;;;;12.23;5.60;;;23.90;74.70;;;;;;4905837;29;20060;-74
2022/05/10 10:30:38;;;;;;;11.07;5.85;;;23.90;74.50;;;;;;4898463;29;20127;-73
2022/05/10 10:33:29;;;;;;;8.15;5.15;;;23.80;71.90;;;;;;4893887;29;20067;-70
2022/05/10 10:36:05;;;;;;;22.10;7.38;;;23.80;74.40;;;;;;4898423;29;20140;-73
2022/05/10 10:38:46;;;;;;;13.23;5.97;;;23.80;71.90;;;;;;4900960;29;20048;-74
2022/05/10 10:41:18;;;;;;;10.77;5.60;;;23.80;74.40;;;;;;4931980;29;20409;-74
2022/05/10 10:44:05;;;;;;;11.43;5.40;;;23.90;72.00;;;;;;4951939;29;20107;-74
2022/05/10 10:46:49;;;;;;;11.07;5.47;;;23.50;75.00;;;;;;4950987;29;20130;-75
2022/05/10 10:49:20;;;;;;;10.02;5.47;;;23.80;75.20;;;;;;4949297;28;20432;-74
2022/05/10 10:51:50;;;;;;;8.65;5.28;;;23.70;70.60;;;;;;4950425;28;20051;-74
2022/05/10 10:54:21;;;;;;;11.50;5.13;;;23.90;72.40;;;;;;4936742;29;20059;-74
2022/05/10 10:56:59;;;;;;;10.02;4.90;;;23.80;74.70;;;;;;4904214;29;20371;-74
2022/05/10 10:59:25;;;;;;;8.77;5.07;;;24.00;70.80;;;;;;4941504;29;20501;-74
2022/05/10 11:02:30;;;;;;;11.27;5.15;;;23.70;74.90;;;;;;4928727;29;20096;-74
2022/05/10 11:05:09;;;;;;;10.25;4.93;;;23.80;70.80;;;;;;4878926;29;20069;-74
2022/05/10 11:11:27;;;;;;;8.88;4.38;;;23.90;71.20;;;;;;4879406;29;20109;-75
2022/05/10 11:14:08;;;;;;;8.45;4.65;;;24.00;75.10;;;;;;4878695;29;20414;-75
2022/05/10 11:16:52;;;;;;;7.43;4.50;;;23.80;74.80;;;;;;4863396;29;20131;-67
2022/05/10 11:19:33;;;;;;;9.38;4.45;;;23.70;70.80;;;;;;4864092;29;20053;-65
2022/05/10 11:22:22;;;;;;;7.70;4.50;;;23.80;75.20;;;;;;4891383;29;20052;-65
2022/05/10 11:24:58;;;;;;;9.07;4.63;;;24.00;71.20;;;;;;4889099;29;20450;-75
2022/05/10 11:27:43;;;;;;;6.18;4.22;;;23.80;72.10;;;;;;4896718;29;20096;-75
2022/05/10 11:30:09;;;;;;;7.65;4.55;;;23.90;74.90;;;;;;4880231;29;20108;-67
2022/05/10 11:32:38;;;;;;;8.07;4.63;;;23.90;71.90;;;;;;4881086;29;20108;-66
2022/05/10 11:35:32;;;;;;;10.35;4.70;;;23.70;72.20;;;;;;4895150;29;20056;-67
2022/05/10 11:38:02;;;;;;;8.15;4.57;;;23.90;70.80;;;;;;4872575;29;20101;-65
2022/05/10 11:40:45;;;;;;;7.15;4.63;;;23.80;72.30;;;;;;4891908;29;20529;-66
2022/05/10 11:43:30;;;;;;;7.47;4.57;;;23.80;75.10;;;;;;4915985;29;20087;-67
2022/05/10 11:46:31;;;;;;;7.45;4.45;;;23.60;75.30;;;;;;4908665;28;20051;-75
2022/05/10 11:49:21;;;;;;;9.80;4.60;;;23.70;71.50;;;;;;4922523;29;20090;-76
2022/05/10 11:52:02;;;;;;;8.43;4.80;;;23.70;75.30;;;;;;4923804;29;20454;-76
2022/05/10 11:54:49;;;;;;;10.73;5.07;;;23.50;75.50;;;;;;4924950;29;20059;-75
2022/05/10 11:57:19;;;;;;;14.43;5.07;;;23.70;75.50;;;;;;4933388;29;20126;-76
2022/05/10 11:59:45;;;;;;;9.65;4.90;;;23.70;75.80;;;;;;4935312;29;20048;-66
2022/05/10 12:02:29;;;;;;;12.48;5.63;;;23.50;72.50;;;;;;4935980;29;20039;-65
2022/05/10 12:05:10;;;;;;;13.90;5.57;;;23.50;73.10;;;;;;4935019;29;20138;-66
2022/05/10 12:08:03;;;;;;;10.27;5.40;;;23.60;73.20;;;;;;4933339;29;20559;-76
2022/05/10 12:10:44;;;;;;;;;;;23.70;73.40;;;;;;4932891;29;20067;-75
2022/05/10 12:21:19;;;;;;;16.77;5.05;;;23.60;72.10;;;;;;4921282;29;19966;-72
2022/05/10 12:22:19;;;;;;;9.32;5.20;;;23.80;76.00;;;;;;4845856;29;20159;-66
2022/05/10 12:24:46;;;;;;;8.45;4.93;;;23.70;75.90;;;;;;4809820;29;20073;-75
2022/05/10 12:27:12;;;;;;;8.60;5.47;;;23.60;76.10;;;;;;4797040;29;20160;-76
2022/05/10 12:29:38;;;;;;;10.23;5.43;;;23.80;73.10;;;;;;4843309;29;20136;-76
2022/05/10 12:32:21;;;;;;;8.65;5.20;;;23.70;72.60;;;;;;4837936;29;20057;-75
2022/05/10 12:35:00;;;;;;;11.88;5.03;;;23.70;75.80;;;;;;4843167;29;20531;-75
2022/05/10 12:37:26;;;;;;;10.90;6.00;;;23.90;71.90;;;;;;4795330;29;20057;-75
2022/05/10 12:40:11;;;;;;;8.13;4.75;;;24.00;73.10;;;;;;4856520;29;20137;-74
2022/05/10 12:43:14;;;;;;;11.40;5.75;;;23.80;71.60;;;;;;4830868;29;20473;-75
2022/05/10 12:46:02;;;;;;;9.80;4.78;;;23.90;76.30;;;;;;4827584;29;20083;-75
2022/05/10 12:49:01;;;;;;;9.35;5.20;;;24.00;73.70;;;;;;4842940;29;20049;-75
2022/05/10 12:51:27;;;;;;;8.05;4.88;;;24.00;72.20;;;;;;4915526;29;20056;-75
2022/05/10 12:53:57;;;;;;;8.55;5.15;;;23.90;73.80;;;;;;4915840;29;20557;-75
2022/05/10 12:56:28;;;;;;;8.57;4.75;;;23.90;76.20;;;;;;4916930;29;20061;-75
2022/05/10 12:59:16;;;;;;;9.37;4.80;;;23.90;71.90;;;;;;4918628;29;20048;-75
2022/05/10 13:01:42;;;;;;;8.00;4.20;;;24.20;76.80;;;;;;4905466;29;20284;-71
2022/05/10 13:04:18;;;;;;;13.80;5.10;;;23.90;72.80;;;;;;4913244;29;20048;-76
2022/05/10 13:06:59;;;;;;;7.25;4.90;;;24.00;71.90;;;;;;4900276;29;20063;-74
2022/05/10 13:09:29;;;;;;;7.45;4.68;;;23.80;72.10;;;;;;4899538;29;20052;-76
2022/05/10 13:12:15;;;;;;;9.48;4.32;;;23.80;71.60;;;;;;4915840;29;20064;-75
2022/05/10 13:14:48;;;;;;;8.40;4.85;;;23.80;75.80;;;;;;4907069;29;20123;-76
2022/05/10 13:17:32;;;;;;;13.65;5.60;;;24.00;76.00;;;;;;4887532;29;20149;-75
2022/05/10 13:19:58;;;;;;;11.30;4.80;;;23.90;72.00;;;;;;4876540;29;20391;-75
2022/05/10 13:22:24;;;;;;;19.45;5.40;;;23.90;72.90;;;;;;4907030;29;20040;-76
2022/05/10 13:24:51;;;;;;;11.90;4.90;;;23.70;73.50;;;;;;4903702;29;20055;-75
2022/05/10 13:27:28;;;;;;;10.25;4.63;;;23.90;75.80;;;;;;4920195;29;20063;-75
2022/05/10 13:30:03;;;;;;;10.13;5.03;;;24.00;76.00;;;;;;4912635;29;20092;-76
2022/05/10 13:32:42;;;;;;;12.93;4.03;;;23.90;73.30;;;;;;4887323;29;20084;-75